createdAt,value
2023-07-02T00:00:07.460Z,46.18
2023-07-02T00:02:34.481Z,46.12
2023-07-02T00:05:01.404Z,46.14
2023-07-02T00:07:28.290Z,46.13
2023-07-02T00:09:55.505Z,46.32
2023-07-02T00:12:22.324Z,46.29
2023-07-02T00:14:49.115Z,46.27
2023-07-02T00:17:16.115Z,46.13
2023-07-02T00:19:43.212Z,46.17
2023-07-02T00:22:10.445Z,46.09
2023-07-02T00:24:38.067Z,46.12
2023-07-02T00:27:05.823Z,46.26
2023-07-02T00:29:32.609Z,46.17
2023-07-02T00:31:59.399Z,46.19
2023-07-02T00:34:27.592Z,46.31
2023-07-02T00:36:54.493Z,46.18
2023-07-02T00:39:21.404Z,46.21
2023-07-02T00:41:48.241Z,46.24
2023-07-02T00:44:15.434Z,46.20
2023-07-02T00:46:42.451Z,46.42
2023-07-02T00:49:10.061Z,46.21
2023-07-02T00:51:38.701Z,46.32
2023-07-02T00:54:05.677Z,46.28
2023-07-02T00:56:32.645Z,46.32
2023-07-02T00:58:59.996Z,46.32
2023-07-02T01:01:34.640Z,46.29
2023-07-02T01:04:03.318Z,46.26
2023-07-02T01:06:33.075Z,46.35
2023-07-02T01:09:03.904Z,46.39
2023-07-02T01:11:39.599Z,46.35
2023-07-02T01:14:14.972Z,46.32
2023-07-02T01:16:45.686Z,46.33
2023-07-02T01:19:19.962Z,46.40
2023-07-02T01:21:51.030Z,46.39
2023-07-02T01:24:18.944Z,46.35
2023-07-02T01:26:46.904Z,46.40
2023-07-02T01:29:17.907Z,46.37
2023-07-02T01:31:45.875Z,46.30
2023-07-02T01:34:13.499Z,46.29
2023-07-02T01:36:41.231Z,46.38
2023-07-02T01:39:08.134Z,46.35
2023-07-02T01:42:09.130Z,46.42
2023-07-02T01:44:36.472Z,46.46
2023-07-02T01:47:04.267Z,46.36
2023-07-02T01:49:31.071Z,46.39
2023-07-02T01:51:58.580Z,46.42
2023-07-02T01:54:29.855Z,46.47
2023-07-02T01:56:57.573Z,46.38
2023-07-02T01:59:24.867Z,46.48
2023-07-02T02:01:51.987Z,46.49
2023-07-02T02:04:19.433Z,46.50
2023-07-02T02:06:46.568Z,46.51
2023-07-02T02:09:13.478Z,46.43
2023-07-02T02:11:46.799Z,46.44
2023-07-02T02:14:13.715Z,46.49
2023-07-02T02:16:40.816Z,46.52
2023-07-02T02:19:07.769Z,46.56
2023-07-02T02:21:35.032Z,46.53
2023-07-02T02:24:01.865Z,46.52
2023-07-02T02:26:28.705Z,46.51
2023-07-02T02:28:55.532Z,46.52
2023-07-02T02:31:22.379Z,46.52
2023-07-02T02:33:49.667Z,46.53
2023-07-02T02:36:17.919Z,46.57
2023-07-02T02:38:44.764Z,46.65
2023-07-02T02:41:11.550Z,46.59
2023-07-02T02:43:38.415Z,46.54
2023-07-02T02:46:05.196Z,46.50
2023-07-02T02:48:31.990Z,46.48
2023-07-02T02:50:58.810Z,46.50
2023-07-02T02:53:25.651Z,46.54
2023-07-02T02:55:52.436Z,46.61
2023-07-02T02:58:19.219Z,46.60
2023-07-02T03:00:47.274Z,46.63
2023-07-02T03:03:15.024Z,46.64
2023-07-02T03:05:42.035Z,46.63
2023-07-02T03:08:08.886Z,46.75
2023-07-02T03:13:02.529Z,46.69
2023-07-02T03:15:29.339Z,46.80
2023-07-02T03:17:56.302Z,46.81
2023-07-02T03:20:23.464Z,46.88
2023-07-02T03:22:50.246Z,46.92
2023-07-02T03:25:17.381Z,46.98
2023-07-02T03:27:44.332Z,47.07
2023-07-02T03:30:11.401Z,47.08
2023-07-02T03:32:38.242Z,47.14
2023-07-02T03:35:05.481Z,47.27
2023-07-02T03:37:32.307Z,47.26
2023-07-02T03:39:59.928Z,47.24
2023-07-02T03:42:26.805Z,47.26
2023-07-02T03:44:53.757Z,47.33
2023-07-02T03:47:20.797Z,47.29
2023-07-02T03:49:48.717Z,47.33
2023-07-02T03:52:15.516Z,47.40
2023-07-02T03:54:42.411Z,47.31
2023-07-02T03:57:09.199Z,47.34
2023-07-02T03:59:36.387Z,47.28
2023-07-02T04:02:03.244Z,47.30
2023-07-02T04:04:30.216Z,47.24
2023-07-02T04:06:57.355Z,47.12
2023-07-02T04:09:24.234Z,47.09
2023-07-02T04:11:51.039Z,47.08
2023-07-02T04:14:17.911Z,46.94
2023-07-02T04:16:46.002Z,46.84
2023-07-02T04:19:13.284Z,46.76
2023-07-02T04:21:40.186Z,46.68
2023-07-02T04:24:07.220Z,46.74
2023-07-02T04:27:04.352Z,46.75
2023-07-02T04:29:21.816Z,46.74
2023-07-02T04:31:48.686Z,46.69
2023-07-02T04:34:15.601Z,46.68
2023-07-02T04:36:42.418Z,46.68
2023-07-02T04:39:10.163Z,46.74
2023-07-02T04:41:36.993Z,46.77
2023-07-02T04:44:04.164Z,46.73
2023-07-02T04:46:31.170Z,46.82
2023-07-02T04:48:58.230Z,46.86
2023-07-02T04:51:25.111Z,46.84
2023-07-02T04:53:51.952Z,46.54
2023-07-02T04:56:18.741Z,46.24
2023-07-02T04:58:45.597Z,46.05
2023-07-02T05:01:12.418Z,45.80
2023-07-02T05:03:39.910Z,45.65
2023-07-02T05:06:06.857Z,45.47
2023-07-02T05:08:33.658Z,45.29
2023-07-02T05:11:00.496Z,45.14
2023-07-02T05:13:27.450Z,45.01
2023-07-02T05:15:54.268Z,44.88
2023-07-02T05:18:21.078Z,44.82
2023-07-02T05:20:48.078Z,44.76
2023-07-02T05:23:15.237Z,44.69
2023-07-02T05:25:42.123Z,44.59
2023-07-02T05:28:08.938Z,44.51
2023-07-02T05:30:35.726Z,44.42
2023-07-02T05:33:02.656Z,44.32
2023-07-02T05:35:29.558Z,44.21
2023-07-02T05:37:56.456Z,44.10
2023-07-02T05:40:23.391Z,43.97
2023-07-02T05:42:50.262Z,43.83
2023-07-02T05:45:17.196Z,43.67
2023-07-02T05:47:44.044Z,43.58
2023-07-02T05:50:11.007Z,43.53
2023-07-02T05:52:37.871Z,43.47
2023-07-02T05:55:05.192Z,43.44
2023-07-02T05:57:32.042Z,43.42
2023-07-02T05:59:58.898Z,43.44
2023-07-02T06:02:25.888Z,43.47
2023-07-02T06:04:52.881Z,43.44
2023-07-02T06:07:19.824Z,43.33
2023-07-02T06:09:46.695Z,43.17
2023-07-02T06:12:13.649Z,43.06
2023-07-02T06:14:40.434Z,42.94
2023-07-02T06:17:08.939Z,42.87
2023-07-02T06:19:37.708Z,42.68
2023-07-02T06:22:05.203Z,42.52
2023-07-02T06:24:32.545Z,42.44
2023-07-02T06:26:59.479Z,42.39
2023-07-02T06:29:26.516Z,42.34
2023-07-02T06:31:53.376Z,42.52
2023-07-02T06:34:20.151Z,42.56
2023-07-02T06:36:46.989Z,42.68
2023-07-02T06:39:13.895Z,42.79
2023-07-02T06:41:40.707Z,42.88
2023-07-02T06:44:07.559Z,42.92
2023-07-02T06:46:34.376Z,43.03
2023-07-02T06:49:01.215Z,43.11
2023-07-02T06:51:30.272Z,43.19
2023-07-02T06:53:57.229Z,43.29
2023-07-02T06:56:24.046Z,43.36
2023-07-02T06:58:50.890Z,43.47
2023-07-02T07:01:17.755Z,43.64
2023-07-02T07:03:44.727Z,43.76
2023-07-02T07:06:12.651Z,43.93
2023-07-02T07:08:40.281Z,44.04
2023-07-02T07:11:07.085Z,44.16
2023-07-02T07:13:33.974Z,44.28
2023-07-02T07:16:00.935Z,44.48
2023-07-02T07:18:29.705Z,44.79
2023-07-02T07:20:58.238Z,44.95
2023-07-02T07:23:25.043Z,45.11
2023-07-02T07:25:52.244Z,45.18
2023-07-02T07:28:19.107Z,45.33
2023-07-02T07:30:46.022Z,45.26
2023-07-02T07:33:12.921Z,45.31
2023-07-02T07:35:39.771Z,45.34
2023-07-02T07:38:06.565Z,45.32
2023-07-02T07:40:33.478Z,45.37
2023-07-02T07:43:00.278Z,45.42
2023-07-02T07:45:27.071Z,45.56
2023-07-02T07:47:53.952Z,45.81
2023-07-02T07:50:20.798Z,45.94
2023-07-02T07:52:48.983Z,46.02
2023-07-02T07:55:16.014Z,45.93
2023-07-02T07:57:42.879Z,45.89
2023-07-02T08:00:13.103Z,45.75
2023-07-02T08:02:40.338Z,45.68
2023-07-02T08:05:08.339Z,45.59
2023-07-02T08:07:35.278Z,45.48
2023-07-02T08:10:03.741Z,45.23
2023-07-02T08:12:30.672Z,45.00
2023-07-02T08:14:57.911Z,44.78
2023-07-02T08:17:24.790Z,44.57
2023-07-02T08:19:51.749Z,44.21
2023-07-02T08:22:18.551Z,44.06
2023-07-02T08:24:45.409Z,43.93
2023-07-02T08:27:15.155Z,43.73
2023-07-02T08:29:42.221Z,43.54
2023-07-02T08:32:09.347Z,43.35
2023-07-02T08:34:36.172Z,43.35
2023-07-02T08:37:03.177Z,43.11
2023-07-02T08:39:30.059Z,42.89
2023-07-02T08:41:56.945Z,42.79
2023-07-02T08:44:23.801Z,42.83
2023-07-02T08:46:52.256Z,42.89
2023-07-02T08:49:19.272Z,43.22
2023-07-02T08:51:47.798Z,42.99
2023-07-02T08:54:15.529Z,43.00
2023-07-02T08:56:42.471Z,42.94
2023-07-02T08:59:09.998Z,42.74
2023-07-02T09:01:55.235Z,42.63
2023-07-02T09:04:25.625Z,42.50
2023-07-02T09:07:12.763Z,42.45
2023-07-02T09:09:51.408Z,42.35
2023-07-02T09:12:32.526Z,42.26
2023-07-02T09:15:07.086Z,42.19
2023-07-02T09:17:36.265Z,42.01
2023-07-02T09:20:09.339Z,42.00
2023-07-02T09:22:37.259Z,42.15
2023-07-02T09:25:04.576Z,42.15
2023-07-02T09:27:43.091Z,42.09
2023-07-02T09:30:13.715Z,42.05
2023-07-02T09:32:41.381Z,41.99
2023-07-02T09:35:08.626Z,41.96
2023-07-02T09:37:35.831Z,41.83
2023-07-02T09:40:07.779Z,41.72
2023-07-02T09:42:36.401Z,41.75
2023-07-02T09:45:04.000Z,41.61
2023-07-02T09:47:33.645Z,41.51
2023-07-02T09:50:06.929Z,41.31
2023-07-02T09:52:34.723Z,41.04
2023-07-02T09:55:01.958Z,41.06
2023-07-02T09:57:32.294Z,40.94
2023-07-02T10:00:03.651Z,40.92
2023-07-02T10:02:30.615Z,40.67
2023-07-02T10:04:58.176Z,40.59
2023-07-02T10:07:30.002Z,40.33
2023-07-02T10:09:57.807Z,40.19
2023-07-02T10:12:29.552Z,40.21
2023-07-02T10:14:58.652Z,40.11
2023-07-02T10:17:32.458Z,39.89
2023-07-02T10:20:08.532Z,39.98
2023-07-02T10:22:45.330Z,39.94
2023-07-02T10:25:12.244Z,39.97
2023-07-02T10:27:41.268Z,40.00
2023-07-02T10:30:10.195Z,39.95
2023-07-02T10:32:39.392Z,39.93
2023-07-02T10:35:19.589Z,39.83
2023-07-02T10:37:46.908Z,39.45
2023-07-02T10:40:14.263Z,39.54
2023-07-02T10:42:52.129Z,39.50
2023-07-02T10:45:20.125Z,39.64
2023-07-02T10:47:48.067Z,39.38
2023-07-02T10:50:19.703Z,39.39
2023-07-02T10:52:47.809Z,39.60
2023-07-02T10:55:25.566Z,39.24
2023-07-02T10:58:04.848Z,39.45
2023-07-02T11:00:32.039Z,38.96
2023-07-02T11:02:59.614Z,39.16
2023-07-02T11:05:29.642Z,39.07
2023-07-02T11:08:09.393Z,39.05
2023-07-02T11:10:36.433Z,38.93
2023-07-02T11:13:16.684Z,38.79
2023-07-02T11:15:44.192Z,38.72
2023-07-02T11:18:15.745Z,38.69
2023-07-02T11:20:44.769Z,38.71
2023-07-02T11:23:23.594Z,38.50
2023-07-02T11:26:01.220Z,38.28
2023-07-02T11:28:29.759Z,38.05
2023-07-02T11:30:57.177Z,37.84
2023-07-02T11:33:40.623Z,37.55
2023-07-02T11:36:08.844Z,37.78
2023-07-02T11:38:37.137Z,37.43
2023-07-02T11:41:05.023Z,37.29
2023-07-02T11:43:31.936Z,37.56
2023-07-02T11:45:59.045Z,37.45
2023-07-02T11:48:25.815Z,37.38
2023-07-02T11:50:52.640Z,37.34
2023-07-02T11:53:19.591Z,37.21
2023-07-02T11:55:46.677Z,37.16
2023-07-02T11:58:13.787Z,36.75
2023-07-02T12:00:40.642Z,36.53
2023-07-02T12:03:07.800Z,36.45
2023-07-02T12:05:34.742Z,36.36
2023-07-02T12:08:03.909Z,36.30
2023-07-02T12:10:30.797Z,36.47
2023-07-02T12:12:57.664Z,36.50
2023-07-02T12:15:24.452Z,36.30
2023-07-02T12:17:51.351Z,36.72
2023-07-02T12:20:18.186Z,36.79
2023-07-02T12:22:45.802Z,36.53
2023-07-02T12:25:12.767Z,36.88
2023-07-02T12:27:39.643Z,36.86
2023-07-02T12:30:07.241Z,37.06
2023-07-02T12:32:34.260Z,36.55
2023-07-02T12:35:01.154Z,36.46
2023-07-02T12:37:28.053Z,36.43
2023-07-02T12:39:54.879Z,36.43
2023-07-02T12:42:21.697Z,36.42
2023-07-02T12:44:48.496Z,36.43
2023-07-02T12:47:15.384Z,36.27
2023-07-02T12:49:42.153Z,36.42
2023-07-02T12:52:09.108Z,36.49
2023-07-02T12:54:35.936Z,36.62
2023-07-02T12:57:02.891Z,36.81
2023-07-02T12:59:29.711Z,36.98
2023-07-02T13:01:56.820Z,37.13
2023-07-02T13:04:24.068Z,37.06
2023-07-02T13:06:51.201Z,37.04
2023-07-02T13:09:18.496Z,37.10
2023-07-02T13:11:46.080Z,36.58
2023-07-02T13:14:13.409Z,36.21
2023-07-02T13:16:40.825Z,36.23
2023-07-02T13:19:07.727Z,35.64
2023-07-02T13:21:34.993Z,35.23
2023-07-02T13:24:02.509Z,35.32
2023-07-02T13:26:29.606Z,34.91
2023-07-02T13:28:56.855Z,34.63
2023-07-02T13:31:24.776Z,34.71
2023-07-02T13:33:51.726Z,35.07
2023-07-02T13:36:18.858Z,34.13
2023-07-02T13:38:45.922Z,34.30
2023-07-02T13:41:13.010Z,34.54
2023-07-02T13:43:40.386Z,34.32
2023-07-02T13:46:07.795Z,33.73
2023-07-02T13:48:36.183Z,33.80
2023-07-02T13:51:03.861Z,33.49
2023-07-02T13:53:31.263Z,33.49
2023-07-02T13:55:58.425Z,33.47
2023-07-02T13:58:30.415Z,33.52
2023-07-02T14:00:58.121Z,33.41
2023-07-02T14:03:25.590Z,33.36
2023-07-02T14:05:52.988Z,33.54
2023-07-02T14:08:20.337Z,33.63
2023-07-02T14:10:47.738Z,33.96
2023-07-02T14:13:15.040Z,33.86
2023-07-02T14:15:42.249Z,34.06
2023-07-02T14:18:09.331Z,34.08
2023-07-02T14:20:36.572Z,34.13
2023-07-02T14:23:03.905Z,34.13
2023-07-02T14:25:40.371Z,34.08
2023-07-02T14:28:09.620Z,33.77
2023-07-02T14:30:37.524Z,34.11
2023-07-02T14:33:04.995Z,34.16
2023-07-02T14:35:32.367Z,34.20
2023-07-02T14:38:00.019Z,33.44
2023-07-02T14:40:27.198Z,33.43
2023-07-02T14:42:54.415Z,33.12
2023-07-02T14:45:21.602Z,32.77
2023-07-02T14:47:48.758Z,33.24
2023-07-02T14:50:18.954Z,33.47
2023-07-02T14:52:46.438Z,33.58
2023-07-02T14:55:13.272Z,33.63
2023-07-02T14:57:40.174Z,33.71
2023-07-02T15:00:07.817Z,34.02
2023-07-02T15:02:34.851Z,33.90
2023-07-02T15:05:02.392Z,34.04
2023-07-02T15:07:29.335Z,34.12
2023-07-02T15:09:56.508Z,34.23
2023-07-02T15:12:23.337Z,34.04
2023-07-02T15:14:50.215Z,33.78
2023-07-02T15:17:17.136Z,33.85
2023-07-02T15:19:44.043Z,33.96
2023-07-02T15:22:10.846Z,33.83
2023-07-02T15:24:37.879Z,33.93
2023-07-02T15:27:05.144Z,33.88
2023-07-02T15:29:31.915Z,33.95
2023-07-02T15:31:58.822Z,33.95
2023-07-02T15:34:25.637Z,34.34
2023-07-02T15:36:54.978Z,34.55
2023-07-02T15:39:24.057Z,34.68
2023-07-02T15:41:51.146Z,34.73
2023-07-02T15:44:18.047Z,34.47
2023-07-02T15:46:45.628Z,34.38
2023-07-02T15:49:15.367Z,34.38
2023-07-02T15:51:43.479Z,34.41
2023-07-02T15:54:10.881Z,34.62
2023-07-02T15:56:37.690Z,34.80
2023-07-02T15:59:06.547Z,34.90
2023-07-02T16:01:35.982Z,35.12
2023-07-02T16:04:03.307Z,35.15
2023-07-02T16:06:33.897Z,35.16
2023-07-02T16:09:02.183Z,35.30
2023-07-02T16:11:30.293Z,35.37
2023-07-02T16:13:58.550Z,35.45
2023-07-02T16:16:25.468Z,35.60
2023-07-02T16:18:52.324Z,35.90
2023-07-02T16:21:19.347Z,36.21
2023-07-02T16:23:46.499Z,36.31
2023-07-02T16:26:13.463Z,36.52
2023-07-02T16:28:40.894Z,36.82
2023-07-02T16:31:11.149Z,36.86
2023-07-02T16:33:38.677Z,37.16
2023-07-02T16:36:11.107Z,37.33
2023-07-02T16:38:38.172Z,37.40
2023-07-02T16:41:07.358Z,37.54
2023-07-02T16:43:35.021Z,37.53
2023-07-02T16:46:02.021Z,37.45
2023-07-02T16:48:29.106Z,37.42
2023-07-02T16:51:03.253Z,37.39
2023-07-02T16:53:30.521Z,37.49
2023-07-02T16:56:02.135Z,37.54
2023-07-02T16:58:31.228Z,37.56
2023-07-02T17:01:08.092Z,37.92
2023-07-02T17:03:35.328Z,38.04
2023-07-02T17:06:04.265Z,38.06
2023-07-02T17:08:40.406Z,38.01
2023-07-02T17:11:09.077Z,37.75
2023-07-02T17:13:36.281Z,38.11
2023-07-02T17:16:06.469Z,37.84
2023-07-02T17:18:34.582Z,38.09
2023-07-02T17:21:02.279Z,38.04
2023-07-02T17:23:29.725Z,38.25
2023-07-02T17:26:07.737Z,37.98
2023-07-02T17:28:34.992Z,38.38
2023-07-02T17:31:03.041Z,38.46
2023-07-02T17:33:30.353Z,38.50
2023-07-02T17:35:57.573Z,38.52
2023-07-02T17:38:24.977Z,38.61
2023-07-02T17:40:52.225Z,38.67
2023-07-02T17:43:19.677Z,38.71
2023-07-02T17:45:57.487Z,38.64
2023-07-02T17:48:28.229Z,38.60
2023-07-02T17:51:03.107Z,38.60
2023-07-02T17:53:30.467Z,38.56
2023-07-02T17:55:58.321Z,38.55
2023-07-02T17:58:25.747Z,38.64
2023-07-02T18:00:53.207Z,38.69
2023-07-02T18:03:20.705Z,38.76
2023-07-02T18:05:49.521Z,38.73
2023-07-02T18:08:16.638Z,38.82
2023-07-02T18:10:48.027Z,38.89
2023-07-02T18:13:15.454Z,38.99
2023-07-02T18:15:42.554Z,39.14
2023-07-02T18:18:10.785Z,39.31
2023-07-02T18:20:37.895Z,39.51
2023-07-02T18:23:05.024Z,39.86
2023-07-02T18:25:32.122Z,40.11
2023-07-02T18:28:17.406Z,40.42
2023-07-02T18:30:46.090Z,40.69
2023-07-02T18:33:13.506Z,40.90
2023-07-02T18:35:42.532Z,41.32
2023-07-02T18:38:11.209Z,41.53
2023-07-02T18:40:39.474Z,41.72
2023-07-02T18:43:07.776Z,41.86
2023-07-02T18:45:35.864Z,42.03
2023-07-02T18:48:04.955Z,42.18
2023-07-02T18:50:33.220Z,42.36
2023-07-02T18:53:02.321Z,42.53
2023-07-02T18:55:30.652Z,42.71
2023-07-02T18:57:58.675Z,42.78
2023-07-02T19:00:26.966Z,42.91
2023-07-02T19:02:55.434Z,43.01
2023-07-02T19:05:25.454Z,43.09
2023-07-02T19:07:54.540Z,43.07
2023-07-02T19:10:22.151Z,43.25
2023-07-02T19:12:49.516Z,43.32
2023-07-02T19:15:16.556Z,43.42
2023-07-02T19:17:44.834Z,43.60
2023-07-02T19:20:12.613Z,43.87
2023-07-02T19:22:39.795Z,43.99
2023-07-02T19:25:07.670Z,44.13
2023-07-02T19:27:34.961Z,44.24
2023-07-02T19:30:02.489Z,44.30
2023-07-02T19:32:33.220Z,44.36
2023-07-02T19:35:00.509Z,44.37
2023-07-02T19:37:27.476Z,44.44
2023-07-02T19:39:54.831Z,44.44
2023-07-02T19:42:21.704Z,44.43
2023-07-02T19:44:53.380Z,44.38
2023-07-02T19:47:20.275Z,44.39
2023-07-02T19:49:47.377Z,44.41
2023-07-02T19:52:22.033Z,44.48
2023-07-02T19:54:49.396Z,44.47
2023-07-02T19:57:17.628Z,44.53
2023-07-02T19:59:48.049Z,44.54
2023-07-02T20:02:19.494Z,44.56
2023-07-02T20:04:58.405Z,44.64
2023-07-02T20:07:28.769Z,44.68
2023-07-02T20:09:57.144Z,44.71
2023-07-02T20:12:29.345Z,44.83
2023-07-02T20:15:01.205Z,44.86
2023-07-02T20:17:30.389Z,44.84
2023-07-02T20:19:59.888Z,44.93
2023-07-02T20:22:27.630Z,44.95
2023-07-02T20:24:58.115Z,45.04
2023-07-02T20:27:31.663Z,45.08
2023-07-02T20:29:58.650Z,45.09
2023-07-02T20:32:25.808Z,45.11
2023-07-02T20:34:52.645Z,45.17
2023-07-02T20:37:22.328Z,45.30
2023-07-02T20:39:49.368Z,45.48
2023-07-02T20:42:19.523Z,45.44
2023-07-02T20:44:53.351Z,45.48
2023-07-02T20:47:25.021Z,45.55
2023-07-02T20:49:53.222Z,45.59
2023-07-02T20:52:25.081Z,45.59
2023-07-02T20:54:56.313Z,45.57
2023-07-02T20:57:23.806Z,45.68
2023-07-02T20:59:51.533Z,45.65
2023-07-02T21:02:20.350Z,45.64
2023-07-02T21:04:48.573Z,45.66
2023-07-02T21:07:15.429Z,45.68
2023-07-02T21:09:42.320Z,45.60
2023-07-02T21:12:09.739Z,45.52
2023-07-02T21:14:36.785Z,45.55
2023-07-02T21:17:03.905Z,45.63
2023-07-02T21:19:31.264Z,45.52
2023-07-02T21:21:58.078Z,45.54
2023-07-02T21:24:24.921Z,45.44
2023-07-02T21:26:51.727Z,45.47
2023-07-02T21:29:18.524Z,45.43
2023-07-02T21:31:45.451Z,45.52
2023-07-02T21:34:12.376Z,45.49
2023-07-02T21:36:39.184Z,45.64
2023-07-02T21:39:05.985Z,45.70
2023-07-02T21:41:33.351Z,45.63
2023-07-02T21:44:00.340Z,45.70
2023-07-02T21:46:27.583Z,45.69
2023-07-02T21:48:54.408Z,45.67
2023-07-02T21:51:22.874Z,45.81
2023-07-02T21:53:50.468Z,45.73
2023-07-02T21:56:18.879Z,45.62
2023-07-02T21:58:49.260Z,45.72
2023-07-02T22:01:16.697Z,45.81
2023-07-02T22:03:43.709Z,45.84
2023-07-02T22:06:10.740Z,45.77
2023-07-02T22:08:38.594Z,45.88
2023-07-02T22:11:21.732Z,45.85
2023-07-02T22:13:50.395Z,45.85
2023-07-02T22:16:17.177Z,45.90
2023-07-02T22:18:44.126Z,45.91
2023-07-02T22:21:10.993Z,45.98
2023-07-02T22:23:38.621Z,45.95
2023-07-02T22:26:05.701Z,45.98
2023-07-02T22:28:32.703Z,45.98
2023-07-02T22:30:59.719Z,46.07
2023-07-02T22:33:26.722Z,45.99
2023-07-02T22:35:53.507Z,46.11
2023-07-02T22:38:20.340Z,46.08
2023-07-02T22:40:47.199Z,46.12
2023-07-02T22:43:14.178Z,46.13
2023-07-02T22:45:41.220Z,46.19
2023-07-02T22:48:08.078Z,46.14
2023-07-02T22:50:35.233Z,46.23
2023-07-02T22:53:02.107Z,46.28
2023-07-02T22:55:33.240Z,46.29
2023-07-02T22:58:02.351Z,46.34
2023-07-02T23:00:29.308Z,46.30
2023-07-02T23:02:56.294Z,46.42
2023-07-02T23:05:23.913Z,46.44
2023-07-02T23:07:51.114Z,46.32
2023-07-02T23:10:18.218Z,46.33
2023-07-02T23:12:48.404Z,46.40
2023-07-02T23:15:17.372Z,46.43
2023-07-02T23:17:46.743Z,46.46
2023-07-02T23:20:15.695Z,46.51
2023-07-02T23:22:43.604Z,46.54
2023-07-02T23:25:19.943Z,46.50
2023-07-02T23:27:47.965Z,46.52
2023-07-02T23:30:18.411Z,46.54
2023-07-02T23:32:46.906Z,46.58
2023-07-02T23:35:16.120Z,46.62
2023-07-02T23:37:46.086Z,46.62
2023-07-02T23:40:17.142Z,46.70
2023-07-02T23:42:45.269Z,46.72
2023-07-02T23:45:14.124Z,46.76
2023-07-02T23:47:42.222Z,46.86
2023-07-02T23:50:13.194Z,46.95
2023-07-02T23:52:40.309Z,46.93
2023-07-02T23:55:09.858Z,47.03
2023-07-02T23:57:37.276Z,47.09
